sensor_id;sensor_type;location;lat;lon;timestamp;temperature;humidity
38746;DHT22;24488;0.000;0.000;2023-06-22T00:02:13;24.00;55.40
38746;DHT22;24488;0.000;0.000;2023-06-22T00:04:39;24.00;55.90
38746;DHT22;24488;0.000;0.000;2023-06-22T00:07:05;24.00;54.90
38746;DHT22;24488;0.000;0.000;2023-06-22T00:09:31;24.00;55.30
38746;DHT22;24488;0.000;0.000;2023-06-22T00:11:56;24.00;55.30
38746;DHT22;24488;0.000;0.000;2023-06-22T00:14:22;23.90;55.30
38746;DHT22;24488;0.000;0.000;2023-06-22T00:16:47;24.00;55.30
38746;DHT22;24488;0.000;0.000;2023-06-22T00:19:14;23.90;54.80
38746;DHT22;24488;0.000;0.000;2023-06-22T00:21:41;23.90;55.20
38746;DHT22;24488;0.000;0.000;2023-06-22T00:24:08;23.90;55.20
38746;DHT22;24488;0.000;0.000;2023-06-22T00:26:33;23.90;55.30
38746;DHT22;24488;0.000;0.000;2023-06-22T00:28:59;23.90;54.80
38746;DHT22;24488;0.000;0.000;2023-06-22T00:31:24;23.90;55.30
38746;DHT22;24488;0.000;0.000;2023-06-22T00:33:50;23.90;55.20
38746;DHT22;24488;0.000;0.000;2023-06-22T00:36:16;23.90;55.20
38746;DHT22;24488;0.000;0.000;2023-06-22T00:38:43;23.90;54.80
38746;DHT22;24488;0.000;0.000;2023-06-22T00:41:08;23.90;55.30
38746;DHT22;24488;0.000;0.000;2023-06-22T00:43:34;23.90;54.80
38746;DHT22;24488;0.000;0.000;2023-06-22T00:45:59;23.90;55.80
38746;DHT22;24488;0.000;0.000;2023-06-22T00:48:25;23.90;54.70
38746;DHT22;24488;0.000;0.000;2023-06-22T00:50:51;23.90;55.20
38746;DHT22;24488;0.000;0.000;2023-06-22T00:53:19;23.90;55.20
38746;DHT22;24488;0.000;0.000;2023-06-22T00:55:45;23.90;55.20
38746;DHT22;24488;0.000;0.000;2023-06-22T00:58:12;23.90;54.70
38746;DHT22;24488;0.000;0.000;2023-06-22T01:00:38;23.90;55.10
38746;DHT22;24488;0.000;0.000;2023-06-22T01:03:04;23.90;55.20
38746;DHT22;24488;0.000;0.000;2023-06-22T01:05:33;23.90;55.20
38746;DHT22;24488;0.000;0.000;2023-06-22T01:10:57;23.90;55.10
38746;DHT22;24488;0.000;0.000;2023-06-22T01:16:31;23.90;55.10
38746;DHT22;24488;0.000;0.000;2023-06-22T01:19:00;23.90;54.70
38746;DHT22;24488;0.000;0.000;2023-06-22T01:21:28;23.90;55.10
38746;DHT22;24488;0.000;0.000;2023-06-22T01:24:04;23.90;55.10
38746;DHT22;24488;0.000;0.000;2023-06-22T01:27:00;23.80;55.10
38746;DHT22;24488;0.000;0.000;2023-06-22T01:29:35;23.90;54.70
38746;DHT22;24488;0.000;0.000;2023-06-22T01:32:02;23.80;55.00
38746;DHT22;24488;0.000;0.000;2023-06-22T01:34:29;23.80;55.00
38746;DHT22;24488;0.000;0.000;2023-06-22T01:36:56;23.80;54.60
38746;DHT22;24488;0.000;0.000;2023-06-22T01:39:24;23.80;55.00
38746;DHT22;24488;0.000;0.000;2023-06-22T01:41:50;23.80;55.00
38746;DHT22;24488;0.000;0.000;2023-06-22T01:44:16;23.80;55.00
38746;DHT22;24488;0.000;0.000;2023-06-22T01:46:42;23.80;55.00
38746;DHT22;24488;0.000;0.000;2023-06-22T01:49:07;23.80;54.50
38746;DHT22;24488;0.000;0.000;2023-06-22T01:51:33;23.80;55.00
38746;DHT22;24488;0.000;0.000;2023-06-22T01:53:59;23.80;55.00
38746;DHT22;24488;0.000;0.000;2023-06-22T01:56:24;23.80;55.00
38746;DHT22;24488;0.000;0.000;2023-06-22T01:59:00;23.80;54.50
38746;DHT22;24488;0.000;0.000;2023-06-22T02:01:41;23.80;55.00
38746;DHT22;24488;0.000;0.000;2023-06-22T02:04:09;23.80;54.90
38746;DHT22;24488;0.000;0.000;2023-06-22T02:06:38;23.80;54.90
38746;DHT22;24488;0.000;0.000;2023-06-22T02:09:08;23.80;54.40
38746;DHT22;24488;0.000;0.000;2023-06-22T02:11:36;23.80;54.90
38746;DHT22;24488;0.000;0.000;2023-06-22T02:14:02;23.80;55.00
38746;DHT22;24488;0.000;0.000;2023-06-22T02:16:28;23.80;54.90
38746;DHT22;24488;0.000;0.000;2023-06-22T02:18:56;23.80;54.40
38746;DHT22;24488;0.000;0.000;2023-06-22T02:21:28;23.80;54.90
38746;DHT22;24488;0.000;0.000;2023-06-22T02:23:54;23.80;54.90
38746;DHT22;24488;0.000;0.000;2023-06-22T02:26:20;23.80;54.90
38746;DHT22;24488;0.000;0.000;2023-06-22T02:28:45;23.80;54.40
38746;DHT22;24488;0.000;0.000;2023-06-22T02:31:11;23.80;54.80
38746;DHT22;24488;0.000;0.000;2023-06-22T02:33:36;23.80;54.80
38746;DHT22;24488;0.000;0.000;2023-06-22T02:36:02;23.80;54.80
38746;DHT22;24488;0.000;0.000;2023-06-22T02:38:34;23.80;54.40
38746;DHT22;24488;0.000;0.000;2023-06-22T02:41:01;23.80;54.80
38746;DHT22;24488;0.000;0.000;2023-06-22T02:43:27;23.80;54.80
38746;DHT22;24488;0.000;0.000;2023-06-22T02:45:53;23.80;54.80
38746;DHT22;24488;0.000;0.000;2023-06-22T02:48:19;23.80;54.30
38746;DHT22;24488;0.000;0.000;2023-06-22T02:50:44;23.80;54.80
38746;DHT22;24488;0.000;0.000;2023-06-22T02:53:10;23.80;54.30
38746;DHT22;24488;0.000;0.000;2023-06-22T02:55:35;23.80;54.80
38746;DHT22;24488;0.000;0.000;2023-06-22T02:58:01;23.80;54.30
38746;DHT22;24488;0.000;0.000;2023-06-22T03:00:30;23.80;54.80
38746;DHT22;24488;0.000;0.000;2023-06-22T03:02:56;23.80;54.70
38746;DHT22;24488;0.000;0.000;2023-06-22T03:05:22;23.80;54.70
38746;DHT22;24488;0.000;0.000;2023-06-22T03:07:48;23.80;54.30
38746;DHT22;24488;0.000;0.000;2023-06-22T03:10:14;23.80;54.80
38746;DHT22;24488;0.000;0.000;2023-06-22T03:12:40;23.80;54.70
38746;DHT22;24488;0.000;0.000;2023-06-22T03:15:07;23.80;54.70
38746;DHT22;24488;0.000;0.000;2023-06-22T03:17:34;23.80;54.20
38746;DHT22;24488;0.000;0.000;2023-06-22T03:20:00;23.80;54.70
38746;DHT22;24488;0.000;0.000;2023-06-22T03:22:26;23.80;54.70
38746;DHT22;24488;0.000;0.000;2023-06-22T03:24:52;23.80;54.70
38746;DHT22;24488;0.000;0.000;2023-06-22T03:27:17;23.80;54.30
38746;DHT22;24488;0.000;0.000;2023-06-22T03:29:43;23.80;54.70
38746;DHT22;24488;0.000;0.000;2023-06-22T03:32:10;23.80;54.70
38746;DHT22;24488;0.000;0.000;2023-06-22T03:34:35;23.80;54.70
38746;DHT22;24488;0.000;0.000;2023-06-22T03:37:04;23.80;54.20
38746;DHT22;24488;0.000;0.000;2023-06-22T03:39:29;23.70;54.60
38746;DHT22;24488;0.000;0.000;2023-06-22T03:41:56;23.80;54.70
38746;DHT22;24488;0.000;0.000;2023-06-22T03:44:22;23.80;54.60
38746;DHT22;24488;0.000;0.000;2023-06-22T03:46:47;23.90;54.70
38746;DHT22;24488;0.000;0.000;2023-06-22T03:49:13;23.80;54.20
38746;DHT22;24488;0.000;0.000;2023-06-22T03:51:38;23.90;54.70
38746;DHT22;24488;0.000;0.000;2023-06-22T03:54:04;23.80;54.60
38746;DHT22;24488;0.000;0.000;2023-06-22T03:56:29;23.80;54.60
38746;DHT22;24488;0.000;0.000;2023-06-22T03:58:55;23.70;54.10
38746;DHT22;24488;0.000;0.000;2023-06-22T04:01:21;23.70;54.60
38746;DHT22;24488;0.000;0.000;2023-06-22T04:03:47;23.80;54.60
38746;DHT22;24488;0.000;0.000;2023-06-22T04:06:14;23.80;54.60
38746;DHT22;24488;0.000;0.000;2023-06-22T04:08:40;23.70;54.10
38746;DHT22;24488;0.000;0.000;2023-06-22T04:11:06;23.70;54.50
38746;DHT22;24488;0.000;0.000;2023-06-22T04:13:31;24.40;54.50
38746;DHT22;24488;0.000;0.000;2023-06-22T04:15:57;23.80;54.50
38746;DHT22;24488;0.000;0.000;2023-06-22T04:18:23;23.70;54.10
38746;DHT22;24488;0.000;0.000;2023-06-22T04:20:48;23.70;54.50
38746;DHT22;24488;0.000;0.000;2023-06-22T04:23:14;23.90;54.60
38746;DHT22;24488;0.000;0.000;2023-06-22T04:25:40;23.90;54.60
38746;DHT22;24488;0.000;0.000;2023-06-22T04:28:05;23.70;54.10
38746;DHT22;24488;0.000;0.000;2023-06-22T04:30:37;23.80;54.60
38746;DHT22;24488;0.000;0.000;2023-06-22T04:33:12;23.80;54.50
38746;DHT22;24488;0.000;0.000;2023-06-22T04:35:40;23.70;54.00
38746;DHT22;24488;0.000;0.000;2023-06-22T04:38:08;23.70;54.00
38746;DHT22;24488;0.000;0.000;2023-06-22T04:40:34;23.90;54.60
38746;DHT22;24488;0.000;0.000;2023-06-22T04:42:59;23.70;54.50
38746;DHT22;24488;0.000;0.000;2023-06-22T04:45:28;23.70;54.50
38746;DHT22;24488;0.000;0.000;2023-06-22T04:47:56;23.70;54.00
38746;DHT22;24488;0.000;0.000;2023-06-22T04:50:22;23.80;54.60
38746;DHT22;24488;0.000;0.000;2023-06-22T04:52:49;23.70;54.40
38746;DHT22;24488;0.000;0.000;2023-06-22T04:55:15;23.70;54.50
38746;DHT22;24488;0.000;0.000;2023-06-22T04:57:44;23.70;54.00
38746;DHT22;24488;0.000;0.000;2023-06-22T05:00:17;23.80;54.50
38746;DHT22;24488;0.000;0.000;2023-06-22T05:02:45;23.70;54.50
38746;DHT22;24488;0.000;0.000;2023-06-22T05:05:11;23.70;54.40
38746;DHT22;24488;0.000;0.000;2023-06-22T05:07:44;23.80;54.00
38746;DHT22;24488;0.000;0.000;2023-06-22T05:10:12;23.70;54.40
38746;DHT22;24488;0.000;0.000;2023-06-22T05:12:38;23.70;54.40
38746;DHT22;24488;0.000;0.000;2023-06-22T05:15:05;23.70;54.40
38746;DHT22;24488;0.000;0.000;2023-06-22T05:17:32;23.70;53.90
38746;DHT22;24488;0.000;0.000;2023-06-22T05:19:57;23.80;54.40
38746;DHT22;24488;0.000;0.000;2023-06-22T05:22:23;23.70;54.40
38746;DHT22;24488;0.000;0.000;2023-06-22T05:24:49;23.70;54.40
38746;DHT22;24488;0.000;0.000;2023-06-22T05:27:14;23.70;54.40
38746;DHT22;24488;0.000;0.000;2023-06-22T05:29:40;23.70;53.90
38746;DHT22;24488;0.000;0.000;2023-06-22T05:32:05;23.70;54.40
38746;DHT22;24488;0.000;0.000;2023-06-22T05:34:32;23.70;54.40
38746;DHT22;24488;0.000;0.000;2023-06-22T05:36:57;23.70;54.40
38746;DHT22;24488;0.000;0.000;2023-06-22T05:39:26;23.70;53.90
38746;DHT22;24488;0.000;0.000;2023-06-22T05:41:52;23.70;55.10
38746;DHT22;24488;0.000;0.000;2023-06-22T05:44:18;23.70;54.40
38746;DHT22;24488;0.000;0.000;2023-06-22T05:46:43;23.70;54.40
38746;DHT22;24488;0.000;0.000;2023-06-22T05:49:10;23.70;53.90
38746;DHT22;24488;0.000;0.000;2023-06-22T05:51:36;23.70;54.40
38746;DHT22;24488;0.000;0.000;2023-06-22T05:54:02;23.70;54.30
38746;DHT22;24488;0.000;0.000;2023-06-22T05:56:27;23.70;54.30
38746;DHT22;24488;0.000;0.000;2023-06-22T05:58:53;23.70;53.90
38746;DHT22;24488;0.000;0.000;2023-06-22T06:01:19;23.70;54.40
38746;DHT22;24488;0.000;0.000;2023-06-22T06:03:44;23.70;54.30
38746;DHT22;24488;0.000;0.000;2023-06-22T06:06:10;23.80;54.40
38746;DHT22;24488;0.000;0.000;2023-06-22T06:08:36;23.70;53.90
38746;DHT22;24488;0.000;0.000;2023-06-22T06:11:02;23.70;54.30
38746;DHT22;24488;0.000;0.000;2023-06-22T06:13:28;23.80;54.40
38746;DHT22;24488;0.000;0.000;2023-06-22T06:15:53;23.70;54.30
38746;DHT22;24488;0.000;0.000;2023-06-22T06:18:22;23.70;53.90
38746;DHT22;24488;0.000;0.000;2023-06-22T06:20:48;23.70;54.30
38746;DHT22;24488;0.000;0.000;2023-06-22T06:23:14;23.70;54.30
38746;DHT22;24488;0.000;0.000;2023-06-22T06:25:39;23.70;54.30
38746;DHT22;24488;0.000;0.000;2023-06-22T06:28:05;23.70;53.90
38746;DHT22;24488;0.000;0.000;2023-06-22T06:30:31;23.70;54.30
38746;DHT22;24488;0.000;0.000;2023-06-22T06:32:56;23.70;54.30
38746;DHT22;24488;0.000;0.000;2023-06-22T06:35:22;23.70;54.30
38746;DHT22;24488;0.000;0.000;2023-06-22T06:37:49;23.70;53.80
38746;DHT22;24488;0.000;0.000;2023-06-22T06:40:15;23.70;54.30
38746;DHT22;24488;0.000;0.000;2023-06-22T06:42:46;23.70;54.30
38746;DHT22;24488;0.000;0.000;2023-06-22T06:45:15;23.70;54.20
38746;DHT22;24488;0.000;0.000;2023-06-22T06:47:41;23.70;53.80
38746;DHT22;24488;0.000;0.000;2023-06-22T06:50:07;23.70;54.20
38746;DHT22;24488;0.000;0.000;2023-06-22T06:52:33;23.70;54.20
38746;DHT22;24488;0.000;0.000;2023-06-22T06:54:58;23.70;54.20
38746;DHT22;24488;0.000;0.000;2023-06-22T06:57:24;23.70;54.20
38746;DHT22;24488;0.000;0.000;2023-06-22T06:59:57;23.70;53.80
38746;DHT22;24488;0.000;0.000;2023-06-22T07:02:23;23.70;54.30
38746;DHT22;24488;0.000;0.000;2023-06-22T07:04:49;23.70;54.20
38746;DHT22;24488;0.000;0.000;2023-06-22T07:07:15;23.70;54.20
38746;DHT22;24488;0.000;0.000;2023-06-22T07:09:40;23.70;53.80
38746;DHT22;24488;0.000;0.000;2023-06-22T07:12:06;23.70;54.20
38746;DHT22;24488;0.000;0.000;2023-06-22T07:14:32;23.70;54.20
38746;DHT22;24488;0.000;0.000;2023-06-22T07:16:57;23.70;54.20
38746;DHT22;24488;0.000;0.000;2023-06-22T07:19:26;23.70;53.70
38746;DHT22;24488;0.000;0.000;2023-06-22T07:21:55;23.70;54.20
38746;DHT22;24488;0.000;0.000;2023-06-22T07:24:21;23.70;54.20
38746;DHT22;24488;0.000;0.000;2023-06-22T07:26:47;23.70;54.20
38746;DHT22;24488;0.000;0.000;2023-06-22T07:29:17;23.70;53.70
38746;DHT22;24488;0.000;0.000;2023-06-22T07:31:44;23.70;54.20
38746;DHT22;24488;0.000;0.000;2023-06-22T07:34:10;23.70;54.10
38746;DHT22;24488;0.000;0.000;2023-06-22T07:36:35;23.70;54.10
38746;DHT22;24488;0.000;0.000;2023-06-22T07:39:02;23.70;53.70
38746;DHT22;24488;0.000;0.000;2023-06-22T07:41:29;23.70;54.10
38746;DHT22;24488;0.000;0.000;2023-06-22T07:43:54;23.70;54.10
38746;DHT22;24488;0.000;0.000;2023-06-22T07:46:20;23.70;54.10
38746;DHT22;24488;0.000;0.000;2023-06-22T07:48:46;23.70;53.70
38746;DHT22;24488;0.000;0.000;2023-06-22T07:51:11;23.70;54.10
38746;DHT22;24488;0.000;0.000;2023-06-22T07:53:43;23.70;54.10
38746;DHT22;24488;0.000;0.000;2023-06-22T07:56:12;23.70;54.10
38746;DHT22;24488;0.000;0.000;2023-06-22T07:58:38;23.70;53.70
38746;DHT22;24488;0.000;0.000;2023-06-22T08:01:04;23.70;54.10
38746;DHT22;24488;0.000;0.000;2023-06-22T08:03:30;23.70;54.10
38746;DHT22;24488;0.000;0.000;2023-06-22T08:05:55;23.70;54.10
38746;DHT22;24488;0.000;0.000;2023-06-22T08:08:21;23.70;53.70
38746;DHT22;24488;0.000;0.000;2023-06-22T08:10:46;23.70;54.10
38746;DHT22;24488;0.000;0.000;2023-06-22T08:13:12;23.70;54.10
38746;DHT22;24488;0.000;0.000;2023-06-22T08:15:37;23.70;54.10
38746;DHT22;24488;0.000;0.000;2023-06-22T08:18:03;23.70;53.60
38746;DHT22;24488;0.000;0.000;2023-06-22T08:20:29;23.70;54.10
38746;DHT22;24488;0.000;0.000;2023-06-22T08:22:55;23.70;54.10
38746;DHT22;24488;0.000;0.000;2023-06-22T08:25:21;23.70;54.10
38746;DHT22;24488;0.000;0.000;2023-06-22T08:27:47;23.70;53.60
38746;DHT22;24488;0.000;0.000;2023-06-22T08:30:16;23.70;54.10
38746;DHT22;24488;0.000;0.000;2023-06-22T08:32:43;23.70;54.10
38746;DHT22;24488;0.000;0.000;2023-06-22T08:35:09;23.70;54.10
38746;DHT22;24488;0.000;0.000;2023-06-22T08:37:35;23.70;53.60
38746;DHT22;24488;0.000;0.000;2023-06-22T08:40:02;23.70;54.10
38746;DHT22;24488;0.000;0.000;2023-06-22T08:42:34;23.70;54.10
38746;DHT22;24488;0.000;0.000;2023-06-22T08:45:05;23.70;54.10
38746;DHT22;24488;0.000;0.000;2023-06-22T08:47:31;23.70;53.60
38746;DHT22;24488;0.000;0.000;2023-06-22T08:49:56;23.70;54.10
38746;DHT22;24488;0.000;0.000;2023-06-22T08:52:22;23.70;54.10
38746;DHT22;24488;0.000;0.000;2023-06-22T08:54:48;23.70;54.10
38746;DHT22;24488;0.000;0.000;2023-06-22T08:57:14;23.70;54.10
38746;DHT22;24488;0.000;0.000;2023-06-22T08:59:41;23.70;53.60
38746;DHT22;24488;0.000;0.000;2023-06-22T09:02:07;23.70;54.10
38746;DHT22;24488;0.000;0.000;2023-06-22T09:04:32;23.70;54.00
38746;DHT22;24488;0.000;0.000;2023-06-22T09:07:02;23.70;54.00
38746;DHT22;24488;0.000;0.000;2023-06-22T09:09:29;23.70;53.60
38746;DHT22;24488;0.000;0.000;2023-06-22T09:11:55;23.70;54.00
38746;DHT22;24488;0.000;0.000;2023-06-22T09:14:20;23.70;54.00
38746;DHT22;24488;0.000;0.000;2023-06-22T09:16:46;23.70;54.00
38746;DHT22;24488;0.000;0.000;2023-06-22T09:19:11;23.70;53.60
38746;DHT22;24488;0.000;0.000;2023-06-22T09:21:37;23.70;54.60
38746;DHT22;24488;0.000;0.000;2023-06-22T09:24:03;23.70;54.00
38746;DHT22;24488;0.000;0.000;2023-06-22T09:26:28;23.70;54.00
38746;DHT22;24488;0.000;0.000;2023-06-22T09:28:54;23.70;53.60
38746;DHT22;24488;0.000;0.000;2023-06-22T09:31:19;23.70;54.00
38746;DHT22;24488;0.000;0.000;2023-06-22T09:33:53;23.70;54.00
38746;DHT22;24488;0.000;0.000;2023-06-22T09:36:22;23.70;53.90
38746;DHT22;24488;0.000;0.000;2023-06-22T09:38:48;23.70;53.50
38746;DHT22;24488;0.000;0.000;2023-06-22T09:41:14;23.70;54.00
38746;DHT22;24488;0.000;0.000;2023-06-22T09:43:39;23.70;54.00
38746;DHT22;24488;0.000;0.000;2023-06-22T09:46:05;23.70;54.00
38746;DHT22;24488;0.000;0.000;2023-06-22T09:48:32;23.70;53.50
38746;DHT22;24488;0.000;0.000;2023-06-22T09:50:57;23.70;54.00
38746;DHT22;24488;0.000;0.000;2023-06-22T09:53:23;23.70;53.90
38746;DHT22;24488;0.000;0.000;2023-06-22T09:55:48;23.70;53.90
38746;DHT22;24488;0.000;0.000;2023-06-22T09:58:14;23.70;53.50
38746;DHT22;24488;0.000;0.000;2023-06-22T10:00:40;23.70;53.90
38746;DHT22;24488;0.000;0.000;2023-06-22T10:03:06;23.70;54.00
38746;DHT22;24488;0.000;0.000;2023-06-22T10:05:32;23.70;53.90
38746;DHT22;24488;0.000;0.000;2023-06-22T10:07:58;23.70;53.50
38746;DHT22;24488;0.000;0.000;2023-06-22T10:10:23;23.70;53.90
38746;DHT22;24488;0.000;0.000;2023-06-22T10:12:54;23.70;53.90
38746;DHT22;24488;0.000;0.000;2023-06-22T10:15:20;23.70;53.90
38746;DHT22;24488;0.000;0.000;2023-06-22T10:17:46;23.70;53.50
38746;DHT22;24488;0.000;0.000;2023-06-22T10:20:12;23.70;53.90
38746;DHT22;24488;0.000;0.000;2023-06-22T10:22:41;23.70;53.90
38746;DHT22;24488;0.000;0.000;2023-06-22T10:25:08;23.70;53.90
38746;DHT22;24488;0.000;0.000;2023-06-22T10:27:34;23.70;53.50
38746;DHT22;24488;0.000;0.000;2023-06-22T10:30:00;23.70;53.90
38746;DHT22;24488;0.000;0.000;2023-06-22T10:32:26;23.70;53.90
38746;DHT22;24488;0.000;0.000;2023-06-22T10:34:53;23.70;53.90
38746;DHT22;24488;0.000;0.000;2023-06-22T10:37:18;23.70;53.90
38746;DHT22;24488;0.000;0.000;2023-06-22T10:39:44;23.70;53.40
38746;DHT22;24488;0.000;0.000;2023-06-22T10:42:09;23.70;53.40
38746;DHT22;24488;0.000;0.000;2023-06-22T10:44:35;23.70;53.40
38746;DHT22;24488;0.000;0.000;2023-06-22T10:47:01;23.70;53.90
38746;DHT22;24488;0.000;0.000;2023-06-22T10:49:27;23.70;53.90
38746;DHT22;24488;0.000;0.000;2023-06-22T10:51:52;23.70;53.90
38746;DHT22;24488;0.000;0.000;2023-06-22T10:54:18;23.70;53.40
38746;DHT22;24488;0.000;0.000;2023-06-22T10:56:44;23.70;53.90
38746;DHT22;24488;0.000;0.000;2023-06-22T10:59:10;23.70;53.80
38746;DHT22;24488;0.000;0.000;2023-06-22T11:01:35;23.70;53.80
38746;DHT22;24488;0.000;0.000;2023-06-22T11:04:02;23.70;53.40
38746;DHT22;24488;0.000;0.000;2023-06-22T11:06:28;23.70;53.90
38746;DHT22;24488;0.000;0.000;2023-06-22T11:08:53;23.70;53.80
38746;DHT22;24488;0.000;0.000;2023-06-22T11:11:19;23.70;53.80
38746;DHT22;24488;0.000;0.000;2023-06-22T11:13:44;23.70;53.40
38746;DHT22;24488;0.000;0.000;2023-06-22T11:16:10;23.70;53.80
38746;DHT22;24488;0.000;0.000;2023-06-22T11:18:36;23.70;53.80
38746;DHT22;24488;0.000;0.000;2023-06-22T11:21:02;23.70;53.80
38746;DHT22;24488;0.000;0.000;2023-06-22T11:23:27;23.70;53.80
38746;DHT22;24488;0.000;0.000;2023-06-22T11:25:54;23.70;53.40
38746;DHT22;24488;0.000;0.000;2023-06-22T11:28:19;23.70;53.80
38746;DHT22;24488;0.000;0.000;2023-06-22T11:30:45;23.60;53.70
38746;DHT22;24488;0.000;0.000;2023-06-22T11:33:11;23.70;53.80
38746;DHT22;24488;0.000;0.000;2023-06-22T11:35:36;23.70;53.40
38746;DHT22;24488;0.000;0.000;2023-06-22T11:38:02;23.70;53.80
38746;DHT22;24488;0.000;0.000;2023-06-22T11:40:29;23.70;53.80
38746;DHT22;24488;0.000;0.000;2023-06-22T11:42:54;23.70;53.80
38746;DHT22;24488;0.000;0.000;2023-06-22T11:45:20;23.70;53.40
38746;DHT22;24488;0.000;0.000;2023-06-22T11:47:46;23.70;53.80
38746;DHT22;24488;0.000;0.000;2023-06-22T11:50:12;23.70;53.80
38746;DHT22;24488;0.000;0.000;2023-06-22T11:52:37;23.70;53.80
38746;DHT22;24488;0.000;0.000;2023-06-22T11:55:03;23.70;53.40
38746;DHT22;24488;0.000;0.000;2023-06-22T11:57:32;24.60;54.20
38746;DHT22;24488;0.000;0.000;2023-06-22T12:00:02;23.70;53.80
38746;DHT22;24488;0.000;0.000;2023-06-22T12:02:42;23.70;53.70
38746;DHT22;24488;0.000;0.000;2023-06-22T12:05:07;23.70;53.30
38746;DHT22;24488;0.000;0.000;2023-06-22T12:07:33;23.80;53.90
38746;DHT22;24488;0.000;0.000;2023-06-22T12:09:59;23.70;53.80
38746;DHT22;24488;0.000;0.000;2023-06-22T12:12:24;23.70;53.80
38746;DHT22;24488;0.000;0.000;2023-06-22T12:14:50;23.70;53.30
38746;DHT22;24488;0.000;0.000;2023-06-22T12:17:15;23.70;53.80
38746;DHT22;24488;0.000;0.000;2023-06-22T12:19:41;23.70;53.80
38746;DHT22;24488;0.000;0.000;2023-06-22T12:22:06;23.70;53.70
38746;DHT22;24488;0.000;0.000;2023-06-22T12:24:32;23.70;53.30
38746;DHT22;24488;0.000;0.000;2023-06-22T12:26:58;23.70;53.70
38746;DHT22;24488;0.000;0.000;2023-06-22T12:29:23;23.70;53.70
38746;DHT22;24488;0.000;0.000;2023-06-22T12:31:49;23.70;53.70
38746;DHT22;24488;0.000;0.000;2023-06-22T12:34:14;23.70;53.30
38746;DHT22;24488;0.000;0.000;2023-06-22T12:36:40;23.70;53.80
38746;DHT22;24488;0.000;0.000;2023-06-22T12:39:06;23.80;53.80
38746;DHT22;24488;0.000;0.000;2023-06-22T12:41:31;23.80;53.80
38746;DHT22;24488;0.000;0.000;2023-06-22T12:43:57;23.70;53.30
38746;DHT22;24488;0.000;0.000;2023-06-22T12:46:22;23.80;53.80
38746;DHT22;24488;0.000;0.000;2023-06-22T12:48:48;23.70;53.80
38746;DHT22;24488;0.000;0.000;2023-06-22T12:51:19;23.70;53.80
38746;DHT22;24488;0.000;0.000;2023-06-22T12:53:46;23.70;53.30
38746;DHT22;24488;0.000;0.000;2023-06-22T12:56:11;23.80;53.80
38746;DHT22;24488;0.000;0.000;2023-06-22T12:58:37;23.80;53.80
38746;DHT22;24488;0.000;0.000;2023-06-22T13:01:02;23.80;53.80
38746;DHT22;24488;0.000;0.000;2023-06-22T13:03:28;23.70;53.80
38746;DHT22;24488;0.000;0.000;2023-06-22T13:05:54;23.70;53.30
38746;DHT22;24488;0.000;0.000;2023-06-22T13:08:19;23.70;53.80
38746;DHT22;24488;0.000;0.000;2023-06-22T13:10:45;23.70;53.80
38746;DHT22;24488;0.000;0.000;2023-06-22T13:13:10;24.40;54.10
38746;DHT22;24488;0.000;0.000;2023-06-22T13:15:36;23.80;53.30
38746;DHT22;24488;0.000;0.000;2023-06-22T13:18:01;23.70;53.80
38746;DHT22;24488;0.000;0.000;2023-06-22T13:20:28;23.70;53.70
38746;DHT22;24488;0.000;0.000;2023-06-22T13:22:54;23.80;53.80
38746;DHT22;24488;0.000;0.000;2023-06-22T13:25:20;23.70;53.30
38746;DHT22;24488;0.000;0.000;2023-06-22T13:27:49;23.70;53.80
38746;DHT22;24488;0.000;0.000;2023-06-22T13:30:14;23.80;53.80
38746;DHT22;24488;0.000;0.000;2023-06-22T13:32:40;23.80;53.80
38746;DHT22;24488;0.000;0.000;2023-06-22T13:35:09;23.80;53.30
38746;DHT22;24488;0.000;0.000;2023-06-22T13:37:35;23.70;53.70
38746;DHT22;24488;0.000;0.000;2023-06-22T13:40:01;23.80;53.80
38746;DHT22;24488;0.000;0.000;2023-06-22T13:42:28;23.90;53.80
38746;DHT22;24488;0.000;0.000;2023-06-22T13:44:54;23.80;53.40
38746;DHT22;24488;0.000;0.000;2023-06-22T13:47:20;23.80;53.80
38746;DHT22;24488;0.000;0.000;2023-06-22T13:49:45;23.80;53.80
38746;DHT22;24488;0.000;0.000;2023-06-22T13:52:11;23.80;53.80
38746;DHT22;24488;0.000;0.000;2023-06-22T13:54:38;23.80;53.30
38746;DHT22;24488;0.000;0.000;2023-06-22T13:57:03;23.80;53.80
38746;DHT22;24488;0.000;0.000;2023-06-22T13:59:30;23.80;53.80
38746;DHT22;24488;0.000;0.000;2023-06-22T14:01:55;23.80;53.80
38746;DHT22;24488;0.000;0.000;2023-06-22T14:04:24;23.80;53.30
38746;DHT22;24488;0.000;0.000;2023-06-22T14:06:49;23.80;53.80
38746;DHT22;24488;0.000;0.000;2023-06-22T14:09:15;23.80;53.80
38746;DHT22;24488;0.000;0.000;2023-06-22T14:11:41;23.80;53.80
38746;DHT22;24488;0.000;0.000;2023-06-22T14:14:06;23.80;53.30
38746;DHT22;24488;0.000;0.000;2023-06-22T14:16:32;23.80;53.80
38746;DHT22;24488;0.000;0.000;2023-06-22T14:18:57;23.80;53.80
38746;DHT22;24488;0.000;0.000;2023-06-22T14:21:23;23.90;53.80
38746;DHT22;24488;0.000;0.000;2023-06-22T14:23:48;23.80;53.30
38746;DHT22;24488;0.000;0.000;2023-06-22T14:26:17;23.80;53.80
38746;DHT22;24488;0.000;0.000;2023-06-22T14:28:44;23.80;53.80
38746;DHT22;24488;0.000;0.000;2023-06-22T14:31:13;23.80;53.70
38746;DHT22;24488;0.000;0.000;2023-06-22T14:33:40;23.80;53.30
38746;DHT22;24488;0.000;0.000;2023-06-22T14:36:05;23.80;53.70
38746;DHT22;24488;0.000;0.000;2023-06-22T14:38:31;23.80;53.70
38746;DHT22;24488;0.000;0.000;2023-06-22T14:40:56;23.80;53.70
38746;DHT22;24488;0.000;0.000;2023-06-22T14:43:22;23.80;53.70
38746;DHT22;24488;0.000;0.000;2023-06-22T14:45:48;23.80;53.30
38746;DHT22;24488;0.000;0.000;2023-06-22T14:48:13;23.80;53.70
38746;DHT22;24488;0.000;0.000;2023-06-22T14:50:39;23.80;53.70
38746;DHT22;24488;0.000;0.000;2023-06-22T14:53:04;23.80;53.70
38746;DHT22;24488;0.000;0.000;2023-06-22T14:55:30;23.80;53.30
38746;DHT22;24488;0.000;0.000;2023-06-22T14:57:55;23.80;53.70
38746;DHT22;24488;0.000;0.000;2023-06-22T15:00:21;23.80;53.60
38746;DHT22;24488;0.000;0.000;2023-06-22T15:02:46;23.80;53.60
38746;DHT22;24488;0.000;0.000;2023-06-22T15:05:12;23.00;52.90
38746;DHT22;24488;0.000;0.000;2023-06-22T15:07:38;23.80;53.70
38746;DHT22;24488;0.000;0.000;2023-06-22T15:10:03;23.90;53.70
38746;DHT22;24488;0.000;0.000;2023-06-22T15:12:29;23.80;53.70
38746;DHT22;24488;0.000;0.000;2023-06-22T15:14:55;23.80;53.30
38746;DHT22;24488;0.000;0.000;2023-06-22T15:17:20;23.80;53.70
38746;DHT22;24488;0.000;0.000;2023-06-22T15:19:46;23.80;53.70
38746;DHT22;24488;0.000;0.000;2023-06-22T15:22:11;23.80;53.70
38746;DHT22;24488;0.000;0.000;2023-06-22T15:24:38;23.80;53.30
38746;DHT22;24488;0.000;0.000;2023-06-22T15:27:03;23.80;53.30
38746;DHT22;24488;0.000;0.000;2023-06-22T15:29:29;23.80;53.70
38746;DHT22;24488;0.000;0.000;2023-06-22T15:31:59;23.80;53.30
38746;DHT22;24488;0.000;0.000;2023-06-22T15:34:25;24.70;54.10
38746;DHT22;24488;0.000;0.000;2023-06-22T15:36:50;23.90;53.80
38746;DHT22;24488;0.000;0.000;2023-06-22T15:39:16;23.80;53.70
38746;DHT22;24488;0.000;0.000;2023-06-22T15:41:43;23.80;53.30
38746;DHT22;24488;0.000;0.000;2023-06-22T15:44:08;23.80;53.80
38746;DHT22;24488;0.000;0.000;2023-06-22T15:46:34;23.80;53.70